createdAt,value
2023-05-23T00:02:03.337Z,19.24
2023-05-23T00:07:05.153Z,19.22
2023-05-23T00:12:07.234Z,19.18
2023-05-23T00:17:10.844Z,19.16
2023-05-23T00:22:13.258Z,19.09
2023-05-23T00:27:15.041Z,18.98
2023-05-23T00:32:16.982Z,19.00
2023-05-23T00:37:18.718Z,18.90
2023-05-23T00:42:20.434Z,18.89
2023-05-23T00:47:22.235Z,18.83
2023-05-23T00:52:24.760Z,18.79
2023-05-23T00:57:26.581Z,18.82
2023-05-23T01:02:32.277Z,18.79
2023-05-23T01:07:34.068Z,18.78
2023-05-23T01:13:20.428Z,18.71
2023-05-23T01:18:33.562Z,18.66
2023-05-23T01:24:07.992Z,18.63
2023-05-23T01:29:26.906Z,18.57
2023-05-23T01:34:30.492Z,18.49
2023-05-23T01:39:33.925Z,18.41
2023-05-23T01:44:36.422Z,18.39
2023-05-23T01:49:38.749Z,18.47
2023-05-23T01:54:42.579Z,18.42
2023-05-23T01:59:45.425Z,18.46
2023-05-23T02:04:49.462Z,18.50
2023-05-23T02:09:54.417Z,18.56
2023-05-23T02:14:57.057Z,18.58
2023-05-23T02:19:59.001Z,18.64
2023-05-23T02:25:00.742Z,18.65
2023-05-23T02:30:02.484Z,18.66
2023-05-23T02:35:05.557Z,18.64
2023-05-23T02:40:08.066Z,18.59
2023-05-23T02:45:11.377Z,18.50
2023-05-23T02:50:13.846Z,18.39
2023-05-23T02:55:15.769Z,18.32
2023-05-23T03:00:21.655Z,18.22
2023-05-23T03:05:28.587Z,18.02
2023-05-23T03:10:30.700Z,17.97
2023-05-23T03:15:32.584Z,17.91
2023-05-23T03:20:35.650Z,17.87
2023-05-23T03:25:37.493Z,17.78
2023-05-23T03:30:40.434Z,17.62
2023-05-23T03:35:42.587Z,17.48
2023-05-23T03:40:44.635Z,17.30
2023-05-23T03:45:47.545Z,17.31
2023-05-23T03:50:52.272Z,17.16
2023-05-23T03:55:54.286Z,17.14
2023-05-23T04:00:56.724Z,17.17
2023-05-23T04:06:01.020Z,17.27
2023-05-23T04:11:03.411Z,17.37
2023-05-23T04:16:10.845Z,17.48
2023-05-23T04:21:12.992Z,17.57
2023-05-23T04:26:24.126Z,17.59
2023-05-23T04:31:28.205Z,17.66
2023-05-23T04:36:30.302Z,17.63
2023-05-23T04:41:32.541Z,17.54
2023-05-23T04:46:34.442Z,17.42
2023-05-23T04:51:47.370Z,17.41
2023-05-23T04:56:56.393Z,17.50
2023-05-23T05:02:00.309Z,17.48
2023-05-23T05:07:04.206Z,17.56
2023-05-23T05:12:06.458Z,17.68
2023-05-23T05:17:08.743Z,17.78
2023-05-23T05:22:29.689Z,17.77
2023-05-23T05:27:31.596Z,17.90
2023-05-23T05:32:33.798Z,17.96
2023-05-23T05:37:37.024Z,18.03
2023-05-23T05:42:39.606Z,18.13
2023-05-23T05:47:41.906Z,18.18
2023-05-23T05:52:43.928Z,18.14
2023-05-23T05:57:47.073Z,18.23
2023-05-23T06:02:51.973Z,18.28
2023-05-23T06:08:05.063Z,18.35
2023-05-23T06:13:06.996Z,18.43
2023-05-23T06:18:09.686Z,18.56
2023-05-23T06:23:11.880Z,18.64
2023-05-23T06:28:15.430Z,18.66
2023-05-23T06:33:17.348Z,18.71
2023-05-23T06:38:19.408Z,18.80
2023-05-23T06:43:21.176Z,18.84
2023-05-23T06:48:35.306Z,18.95
2023-05-23T06:53:37.079Z,19.10
2023-05-23T06:58:39.404Z,19.10
2023-05-23T07:03:44.409Z,19.17
2023-05-23T07:08:47.274Z,19.19
2023-05-23T07:13:50.776Z,19.24
2023-05-23T07:19:01.852Z,19.28
2023-05-23T07:24:06.065Z,19.28
2023-05-23T07:29:08.238Z,19.21
2023-05-23T07:34:10.373Z,19.26
2023-05-23T07:39:25.853Z,19.29
2023-05-23T07:44:29.196Z,19.30
2023-05-23T07:49:31.165Z,19.41
2023-05-23T07:54:33.882Z,19.40
2023-05-23T07:59:38.544Z,19.48
2023-05-23T08:04:40.920Z,19.60
2023-05-23T08:09:43.331Z,19.65
2023-05-23T08:14:54.531Z,19.74
2023-05-23T08:20:05.260Z,19.75
2023-05-23T08:25:08.359Z,19.89
2023-05-23T08:30:13.348Z,19.91
2023-05-23T08:35:15.358Z,19.97
2023-05-23T08:40:22.300Z,20.14
2023-05-23T08:45:37.349Z,20.36
2023-05-23T08:50:40.937Z,20.55
2023-05-23T08:55:43.144Z,20.68
2023-05-23T09:00:45.967Z,20.77
2023-05-23T09:05:50.298Z,20.67
2023-05-23T09:10:54.711Z,20.69
2023-05-23T09:16:09.285Z,20.61
2023-05-23T09:21:24.714Z,20.52
2023-05-23T09:26:41.304Z,20.59
2023-05-23T09:31:44.348Z,20.50
2023-05-23T09:36:46.781Z,20.47
2023-05-23T09:41:49.449Z,20.59
2023-05-23T09:46:54.540Z,20.71
2023-05-23T09:52:01.313Z,20.94
2023-05-23T09:57:06.107Z,21.14
2023-05-23T10:02:12.031Z,21.33
2023-05-23T10:07:18.063Z,21.15
2023-05-23T10:12:23.209Z,21.01
2023-05-23T10:17:33.370Z,20.78
2023-05-23T10:22:37.010Z,20.67
2023-05-23T10:27:39.689Z,20.70
2023-05-23T10:32:42.777Z,21.00
2023-05-23T10:37:57.075Z,21.22
2023-05-23T10:43:10.635Z,21.61
2023-05-23T10:48:33.079Z,21.67
2023-05-23T10:53:54.593Z,21.72
2023-05-23T10:58:58.393Z,21.48
2023-05-23T11:04:05.533Z,21.66
2023-05-23T11:09:12.083Z,21.93
2023-05-23T11:14:13.961Z,21.84
2023-05-23T11:19:18.807Z,21.62
2023-05-23T11:24:20.951Z,21.64
2023-05-23T11:29:22.864Z,21.96
2023-05-23T11:34:27.756Z,22.00
2023-05-23T11:39:29.531Z,21.96
2023-05-23T11:44:31.232Z,22.10
2023-05-23T11:49:35.650Z,22.37
2023-05-23T11:54:41.207Z,22.41
2023-05-23T11:59:44.434Z,22.43
2023-05-23T12:04:46.200Z,22.76
2023-05-23T12:09:48.236Z,22.62
2023-05-23T12:14:50.197Z,22.70
2023-05-23T12:19:53.015Z,22.75
2023-05-23T12:24:58.250Z,22.83
2023-05-23T12:30:09.513Z,22.76
2023-05-23T12:35:14.022Z,22.89
2023-05-23T12:40:18.027Z,22.94
2023-05-23T12:45:24.761Z,22.70
2023-05-23T12:50:26.525Z,22.75
2023-05-23T12:55:28.298Z,22.68
2023-05-23T13:00:30.071Z,22.78
2023-05-23T13:05:31.974Z,22.77
2023-05-23T13:10:33.731Z,22.38
2023-05-23T13:15:35.507Z,22.34
2023-05-23T13:20:37.733Z,22.49
2023-05-23T13:25:39.582Z,22.56
2023-05-23T13:30:43.511Z,22.39
2023-05-23T13:35:49.244Z,22.46
2023-05-23T13:40:51.807Z,22.29
2023-05-23T13:45:53.651Z,22.46
2023-05-23T13:53:58.589Z,22.32
2023-05-23T13:59:01.156Z,22.37
2023-05-23T14:04:04.747Z,22.60
2023-05-23T14:09:07.964Z,22.52
2023-05-23T14:14:15.567Z,22.29
2023-05-23T14:19:17.483Z,22.24
2023-05-23T14:24:19.500Z,22.29
2023-05-23T14:29:21.465Z,22.02
2023-05-23T14:34:23.163Z,22.22
2023-05-23T14:39:25.647Z,22.38
2023-05-23T14:44:28.116Z,22.23
2023-05-23T14:49:30.832Z,22.20
2023-05-23T14:54:33.061Z,22.26
2023-05-23T14:59:35.215Z,21.98
2023-05-23T15:04:37.331Z,22.19
2023-05-23T15:09:39.470Z,22.29
2023-05-23T15:14:43.288Z,21.79
2023-05-23T15:19:46.065Z,21.48
2023-05-23T15:24:47.942Z,21.41
2023-05-23T15:29:49.716Z,21.23
2023-05-23T15:34:51.795Z,20.92
2023-05-23T15:39:53.584Z,20.78
2023-05-23T15:44:55.392Z,20.82
2023-05-23T15:49:57.137Z,20.66
2023-05-23T15:54:58.995Z,20.61
2023-05-23T16:00:00.973Z,20.45
2023-05-23T16:05:02.744Z,20.55
2023-05-23T16:10:05.215Z,20.49
2023-05-23T16:15:07.610Z,20.55
2023-05-23T16:20:09.908Z,20.92
2023-05-23T16:25:11.723Z,21.27
2023-05-23T16:30:13.639Z,21.49
2023-05-23T16:35:15.604Z,21.41
2023-05-23T16:40:19.478Z,21.14
2023-05-23T16:45:21.638Z,21.21
2023-05-23T16:50:23.402Z,21.31
2023-05-23T16:55:25.436Z,21.37
2023-05-23T17:00:27.238Z,21.28
2023-05-23T17:05:29.233Z,21.23
2023-05-23T17:10:31.099Z,21.02
2023-05-23T17:15:32.878Z,21.08
2023-05-23T17:20:34.757Z,20.99
2023-05-23T17:25:37.248Z,21.06
2023-05-23T17:30:39.009Z,20.93
2023-05-23T17:35:40.765Z,20.70
2023-05-23T17:40:42.919Z,20.57
2023-05-23T17:45:45.134Z,20.51
2023-05-23T17:50:47.752Z,20.27
2023-05-23T17:55:49.458Z,20.07
2023-05-23T18:00:51.895Z,19.91
2023-05-23T18:05:53.852Z,19.83
2023-05-23T18:10:55.609Z,19.68
2023-05-23T18:15:57.474Z,19.51
2023-05-23T18:20:59.270Z,19.30
2023-05-23T18:26:01.004Z,19.14
2023-05-23T18:31:02.869Z,19.19
2023-05-23T18:36:04.770Z,19.07
2023-05-23T18:41:06.663Z,19.04
2023-05-23T18:46:08.830Z,18.91
2023-05-23T18:51:12.220Z,18.83
2023-05-23T18:56:13.951Z,18.76
2023-05-23T19:01:16.627Z,18.67
2023-05-23T19:06:18.709Z,18.58
2023-05-23T19:11:20.455Z,18.39
2023-05-23T19:16:22.270Z,18.27
2023-05-23T19:21:24.328Z,18.22
2023-05-23T19:26:26.040Z,18.23
2023-05-23T19:31:28.419Z,18.23
2023-05-23T19:36:30.362Z,18.20
2023-05-23T19:41:35.433Z,18.16
2023-05-23T19:46:37.708Z,18.13
2023-05-23T19:51:39.517Z,18.09
2023-05-23T19:56:42.203Z,18.08
2023-05-23T20:01:44.171Z,17.90
2023-05-23T20:06:46.380Z,17.74
2023-05-23T20:11:48.243Z,17.73
2023-05-23T20:16:50.023Z,17.72
2023-05-23T20:21:51.846Z,17.64
2023-05-23T20:26:53.645Z,17.58
2023-05-23T20:31:56.092Z,17.51
2023-05-23T20:36:57.828Z,17.35
2023-05-23T20:41:59.711Z,17.16
2023-05-23T20:47:02.376Z,17.08
2023-05-23T20:52:05.448Z,17.12
2023-05-23T20:57:07.353Z,16.95
2023-05-23T21:02:09.118Z,16.77
2023-05-23T21:07:11.131Z,16.74
2023-05-23T21:12:12.918Z,16.80
2023-05-23T21:17:16.101Z,16.92
2023-05-23T21:22:17.935Z,16.86
2023-05-23T21:27:19.669Z,16.66
2023-05-23T21:32:22.335Z,16.51
2023-05-23T21:37:24.443Z,16.31
2023-05-23T21:42:26.426Z,16.16
2023-05-23T21:47:28.379Z,16.00
2023-05-23T21:52:30.745Z,16.01
2023-05-23T21:57:32.500Z,16.07
2023-05-23T22:02:34.356Z,16.11
2023-05-23T22:07:36.634Z,16.16
2023-05-23T22:12:38.848Z,16.08
2023-05-23T22:17:43.710Z,16.17
2023-05-23T22:22:45.803Z,16.10
2023-05-23T22:27:47.650Z,15.94
2023-05-23T22:32:49.728Z,15.93
2023-05-23T22:37:51.606Z,15.79
2023-05-23T22:42:53.331Z,15.79
2023-05-23T22:47:55.111Z,15.79
2023-05-23T22:52:58.310Z,15.70
2023-05-23T22:58:00.454Z,15.70
2023-05-23T23:03:02.741Z,15.67
2023-05-23T23:08:06.019Z,15.64
2023-05-23T23:13:07.762Z,15.61
2023-05-23T23:18:09.826Z,15.62
2023-05-23T23:23:11.699Z,15.66
2023-05-23T23:28:13.410Z,15.53
2023-05-23T23:33:15.632Z,15.46
2023-05-23T23:38:18.414Z,15.46
2023-05-23T23:43:20.109Z,15.37
2023-05-23T23:48:21.948Z,15.38
2023-05-23T23:53:23.789Z,15.41
2023-05-23T23:58:26.313Z,15.42
